This is the latest recevied weather packets stored in our database for station/object IU2PLZ-10. If no packets are shown the sender has not sent any weather packets the latest 10 day(s).
| Time | Temp. | Humidity | Pressure | Rain* | Wind** | Luminosity | Snow |
|---|---|---|---|---|---|---|---|
| 1777847560 | 15.56° C | 62% | 969.4 hPa | - | - | - | - |
| 1777846660 | 15.56° C | 62% | 969.2 hPa | - | - | - | - |
| 1777845760 | 16.11° C | 61% | 970 hPa | - | - | - | - |
| 1777844859 | 16.11° C | 60% | 970 hPa | - | - | - | - |
| 1777843959 | 16.11° C | 60% | 970 hPa | - | - | - | - |
| 1777843059 | 16.11° C | 59% | 970 hPa | - | - | - | - |
| 1777842159 | 16.11° C | 61% | 969.2 hPa | - | - | - | - |
| 1777841259 | 16.67° C | 58% | 970 hPa | - | - | - | - |
| 1777840359 | 16.11° C | 59% | 969.6 hPa | - | - | - | - |
| 1777839458 | 16.67° C | 60% | 969.9 hPa | - | - | - | - |
| 1777838558 | 16.67° C | 59% | 969.7 hPa | - | - | - | - |
| 1777837658 | 16.67° C | 59% | 969.7 hPa | - | - | - | - |
| 1777836758 | 16.11° C | 59% | 968.9 hPa | - | - | - | - |
| 1777835858 | 17.22° C | 59% | 969.8 hPa | - | - | - | - |
| 1777834957 | 17.22° C | 58% | 969.6 hPa | - | - | - | - |
| 1777834057 | 17.22° C | 58% | 969.5 hPa | - | - | - | - |
| 1777833157 | 17.78° C | 57% | 969.3 hPa | - | - | - | - |
| 1777831356 | 17.78° C | 55% | 968.5 hPa | - | - | - | - |
| 1777830456 | 18.89° C | 53% | 969.2 hPa | - | - | - | - |
| 1777829556 | 18.89° C | 52% | 969.1 hPa | - | - | - | - |
| 1777828656 | 18.33° C | 51% | 968.3 hPa | - | - | - | - |
| 1777827756 | 19.44° C | 49% | 969.1 hPa | - | - | - | - |
| 1777826855 | 18.33° C | 49% | 967 hPa | - | - | - | - |
| 1777825955 | 20.56° C | 48% | 969.2 hPa | - | - | - | - |
| 1777825055 | 20.56° C | 48% | 969.1 hPa | - | - | - | - |
* Rain since midnight (hover to see other rain measurements)
** Current wind speed in m/s (hover to see current wind gust speed)